createdAt,value
2022-10-17T00:06:52.353Z,16.43
2022-10-17T00:21:48.575Z,16.46
2022-10-17T00:36:44.452Z,17.05
2022-10-17T00:51:40.839Z,16.8
2022-10-17T01:06:36.972Z,16.41
2022-10-17T01:21:33.532Z,15.94
2022-10-17T01:36:29.807Z,15.8
2022-10-17T01:51:25.999Z,15.94
2022-10-17T02:06:21.689Z,15.87
2022-10-17T02:21:17.527Z,15.87
2022-10-17T02:36:13.822Z,15.93
2022-10-17T02:51:09.917Z,16.32
2022-10-17T03:06:06.572Z,16.85
2022-10-17T03:21:02.941Z,16.86
2022-10-17T03:35:59.081Z,16.56
2022-10-17T03:50:55.349Z,16.85
2022-10-17T04:05:51.644Z,16.29
2022-10-17T04:20:47.440Z,16.55
2022-10-17T04:35:43.688Z,16.5
2022-10-17T04:50:40.358Z,16.47
2022-10-17T05:05:36.543Z,17.1
2022-10-17T05:20:33.370Z,17
2022-10-17T05:35:29.606Z,16.5
2022-10-17T05:50:25.727Z,16.72
2022-10-17T06:05:21.464Z,15.62
2022-10-17T06:20:17.324Z,15.69
2022-10-17T06:35:13.709Z,15.92
2022-10-17T06:50:09.582Z,16.82
2022-10-17T07:05:06.329Z,17.49
2022-10-17T07:20:03.131Z,17.69
2022-10-17T07:34:59.723Z,17.72
2022-10-17T07:49:56.369Z,17.87
2022-10-17T08:04:52.347Z,18.25
2022-10-17T08:19:48.683Z,18.67
2022-10-17T08:34:45.701Z,19.08
2022-10-17T08:49:42.584Z,19.37
2022-10-17T09:04:38.657Z,19.69
2022-10-17T09:19:35.447Z,20.91
2022-10-17T09:34:31.983Z,20.74
2022-10-17T09:49:28.587Z,20.41
2022-10-17T10:04:27.527Z,21.07
2022-10-17T10:19:22.078Z,21.67
2022-10-17T10:34:18.448Z,22.02
2022-10-17T10:49:15.262Z,22.51
2022-10-17T11:04:12.151Z,22.71
2022-10-17T11:19:08.649Z,22.08
2022-10-17T11:34:04.904Z,22
2022-10-17T11:49:01.548Z,22.18
2022-10-17T12:03:57.564Z,22
2022-10-17T12:18:53.712Z,21.9
2022-10-17T12:33:49.815Z,21.65
2022-10-17T12:48:45.981Z,21.49
2022-10-17T13:03:41.594Z,21.37
2022-10-17T13:18:37.648Z,21.46
2022-10-17T13:33:33.751Z,21.66
2022-10-17T13:48:29.746Z,21.54
2022-10-17T14:03:31.873Z,21.5
2022-10-17T14:18:22.481Z,21.41
2022-10-17T14:33:18.502Z,21.85
2022-10-17T14:48:14.268Z,21.67
2022-10-17T15:03:10.657Z,21.81
2022-10-17T15:33:03.425Z,20.92
2022-10-17T15:47:59.450Z,20.35
2022-10-17T16:02:55.249Z,19.83
2022-10-17T16:17:51.236Z,19.39
2022-10-17T16:32:47.718Z,19
2022-10-17T16:47:43.567Z,18.51
2022-10-17T17:02:39.721Z,18.21
2022-10-17T17:17:55.200Z,17.97
2022-10-17T17:32:32.359Z,17.6
2022-10-17T17:47:28.829Z,17.57
2022-10-17T18:17:21.175Z,17.37
2022-10-17T19:02:09.868Z,16.86
2022-10-17T19:17:06.129Z,16.68
2022-10-17T19:32:02.186Z,16.82
2022-10-17T19:46:58.272Z,16.78
2022-10-17T20:01:54.467Z,16.77
2022-10-17T20:16:50.051Z,16.65
2022-10-17T20:31:46.009Z,16.6
2022-10-17T20:46:48.622Z,16.47
2022-10-17T21:16:35.350Z,16.5
2022-10-17T21:31:31.250Z,16.57
2022-10-17T21:43:06.318Z,16.41
2022-10-17T21:58:02.496Z,16.49
2022-10-17T22:12:59.026Z,16.47
2022-10-17T22:27:55.050Z,16.46
2022-10-17T22:42:51.488Z,16.33
2022-10-17T22:57:47.478Z,16.3
2022-10-17T23:00:41.301Z,16.26
2022-10-17T23:15:37.059Z,16.12
2022-10-17T23:30:33.419Z,16.33
2022-10-17T23:45:31.258Z,16.24
